Time;durP1;ratioP1;P1;durP2;ratioP2;P2;SDS_P1;SDS_P2;PMS_P1;PMS_P2;Temp;Humidity;BMP_temperature;BMP_pressure;BME280_temperature;BME280_humidity;BME280_pressure;Samples;Min_cycle;Max_cycle;Signal;HPM_P1;HPM_P2
2022/08/01 00:01:39;;;;;;;;;;;22.50;59.70;;;;;;5069293;27;84769;-44
2022/08/01 00:04:04;;;;;;;;;;;22.50;59.60;;;;;;5067174;27;81964;-44
2022/08/01 00:06:30;;;;;;;;;;;22.50;59.70;;;;;;5067090;27;82266;-45
2022/08/01 00:08:56;;;;;;;;;;;22.50;59.80;;;;;;5066385;27;82943;-45
2022/08/01 00:11:21;;;;;;;;;;;22.40;59.70;;;;;;5067009;27;82396;-44
2022/08/01 00:13:47;;;;;;;;;;;22.40;59.70;;;;;;5066867;27;81998;-45
2022/08/01 00:16:13;;;;;;;;;;;22.40;59.60;;;;;;5067301;27;82268;-44
2022/08/01 00:18:38;;;;;;;;;;;22.40;59.60;;;;;;5066494;27;82105;-44
2022/08/01 00:21:04;;;;;;;;;;;22.40;59.70;;;;;;5069332;27;82037;-44
2022/08/01 00:23:30;;;;;;;;;;;22.40;59.70;;;;;;5066204;27;83028;-45
2022/08/01 00:25:56;;;;;;;;;;;22.40;59.70;;;;;;5066236;27;83356;-43
2022/08/01 00:28:21;;;;;;;;;;;22.40;59.70;;;;;;5066170;27;82715;-45
2022/08/01 00:30:47;;;;;;;;;;;22.30;59.70;;;;;;5066515;27;82046;-44
2022/08/01 00:33:12;;;;;;;;;;;22.30;59.70;;;;;;5066647;27;82596;-44
2022/08/01 00:35:38;;;;;;;;;;;22.30;59.70;;;;;;5066599;27;83181;-44
2022/08/01 00:38:03;;;;;;;;;;;22.30;59.70;;;;;;5066798;27;82076;-44
2022/08/01 00:40:29;;;;;;;;;;;22.30;59.70;;;;;;5066703;27;82706;-44
2022/08/01 00:42:54;;;;;;;;;;;22.30;59.70;;;;;;5069017;27;83127;-43
2022/08/01 00:45:20;;;;;;;;;;;22.20;59.70;;;;;;5065937;27;82397;-46
2022/08/01 00:47:45;;;;;;;;;;;22.20;59.70;;;;;;5065288;27;85505;-46
2022/08/01 00:50:11;;;;;;;;;;;22.20;59.60;;;;;;5066025;27;82013;-43
2022/08/01 00:52:38;;;;;;;;;;;22.20;59.60;;;;;;5066543;27;82537;-45
2022/08/01 00:55:04;;;;;;;;;;;22.20;59.60;;;;;;5065940;27;84368;-44
2022/08/01 00:57:29;;;;;;;;;;;22.20;59.60;;;;;;5066263;27;82100;-44
2022/08/01 00:59:55;;;;;;;;;;;22.20;59.60;;;;;;5066116;27;82035;-44
2022/08/01 01:02:21;;;;;;;;;;;22.10;59.60;;;;;;5066009;27;83075;-44
2022/08/01 01:04:46;;;;;;;;;;;22.20;59.70;;;;;;5069403;27;81203;-44
2022/08/01 01:07:17;;;;;;;;;;;22.10;59.60;;;;;;5066036;27;83165;-43
2022/08/01 01:09:52;;;;;;;;;;;22.10;59.50;;;;;;5066280;27;81829;-44
2022/08/01 01:12:36;;;;;;;;;;;22.10;59.60;;;;;;5065411;27;83751;-44
2022/08/01 01:15:04;;;;;;;;;;;22.10;59.60;;;;;;5065885;27;83094;-44
2022/08/01 01:17:36;;;;;;;;;;;22.10;59.60;;;;;;5066110;27;81983;-44
2022/08/01 01:20:05;;;;;;;;;;;22.00;59.50;;;;;;5065870;27;82468;-44
2022/08/01 01:22:56;;;;;;;;;;;22.00;59.50;;;;;;5065553;27;84831;-43
2022/08/01 01:25:22;;;;;;;;;;;22.00;59.50;;;;;;5056092;27;82103;-44
2022/08/01 01:28:00;;;;;;;;;;;22.00;59.50;;;;;;5068470;27;82812;-44
2022/08/01 01:30:27;;;;;;;;;;;22.00;59.50;;;;;;5066463;27;81662;-45
2022/08/01 01:32:53;;;;;;;;;;;22.00;59.60;;;;;;5065904;27;81983;-43
2022/08/01 01:35:26;;;;;;;;;;;21.90;59.50;;;;;;5065475;27;83099;-44
2022/08/01 01:37:56;;;;;;;;;;;21.90;59.60;;;;;;5065106;27;82938;-44
2022/08/01 01:40:22;;;;;;;;;;;21.90;59.60;;;;;;5068915;27;82437;-44
2022/08/01 01:42:48;;;;;;;;;;;21.90;59.60;;;;;;5068966;27;84692;-44
2022/08/01 01:45:14;;;;;;;;;;;21.90;59.60;;;;;;5068848;27;81927;-46
2022/08/01 01:47:40;;;;;;;;;;;21.90;59.60;;;;;;5069303;27;82365;-44
2022/08/01 01:50:08;;;;;;;;;;;21.80;59.60;;;;;;5071060;27;83311;-44
2022/08/01 01:52:35;;;;;;;;;;;21.80;59.60;;;;;;5069065;27;83650;-43
2022/08/01 01:55:01;;;;;;;;;;;21.80;59.60;;;;;;5069342;27;82196;-45
2022/08/01 01:57:28;;;;;;;;;;;21.80;59.60;;;;;;5069002;27;82018;-44
2022/08/01 01:59:55;;;;;;;;;;;21.80;59.50;;;;;;5068934;27;83737;-46
2022/08/01 02:02:22;;;;;;;;;;;21.80;59.60;;;;;;5068007;27;84023;-43
2022/08/01 02:04:48;;;;;;;;;;;21.70;59.50;;;;;;5068887;27;81980;-44
2022/08/01 02:07:19;;;;;;;;;;;21.80;59.60;;;;;;5068992;27;82235;-44
2022/08/01 02:09:45;;;;;;;;;;;21.70;59.50;;;;;;5068821;27;82809;-44
2022/08/01 02:12:11;;;;;;;;;;;21.70;59.50;;;;;;5071599;27;81973;-43
2022/08/01 02:14:39;;;;;;;;;;;21.70;59.80;;;;;;5068655;27;83006;-45
2022/08/01 02:17:05;;;;;;;;;;;21.70;59.60;;;;;;5068594;27;82087;-44
2022/08/01 02:19:32;;;;;;;;;;;21.70;59.60;;;;;;5068858;27;83758;-43
2022/08/01 02:22:03;;;;;;;;;;;21.60;59.50;;;;;;5068400;27;83075;-43
2022/08/01 02:24:37;;;;;;;;;;;21.60;59.60;;;;;;5068571;27;82078;-43
2022/08/01 02:27:06;;;;;;;;;;;21.60;59.70;;;;;;5068066;27;82877;-44
2022/08/01 02:29:39;;;;;;;;;;;21.60;59.70;;;;;;5068272;27;82992;-44
2022/08/01 02:32:23;;;;;;;;;;;21.50;59.70;;;;;;5071068;27;82015;-44
2022/08/01 02:34:50;;;;;;;;;;;21.50;59.70;;;;;;5068110;27;84323;-45
2022/08/01 02:37:17;;;;;;;;;;;21.50;59.60;;;;;;5068554;27;82520;-44
2022/08/01 02:39:44;;;;;;;;;;;21.50;59.70;;;;;;5068377;27;82298;-44
2022/08/01 02:42:11;;;;;;;;;;;21.50;59.70;;;;;;5068126;27;82975;-44
2022/08/01 02:44:38;;;;;;;;;;;21.40;59.70;;;;;;5068283;27;81335;-44
2022/08/01 02:47:04;;;;;;;;;;;21.40;59.60;;;;;;5068325;27;82942;-44
2022/08/01 02:49:35;;;;;;;;;;;21.40;59.60;;;;;;5067072;27;84231;-43
2022/08/01 02:52:03;;;;;;;;;;;21.40;59.60;;;;;;5067496;27;82970;-44
2022/08/01 02:54:30;;;;;;;;;;;21.40;59.50;;;;;;5070565;27;82898;-47
2022/08/01 02:56:56;;;;;;;;;;;21.40;59.60;;;;;;5067882;27;82047;-44
2022/08/01 02:59:25;;;;;;;;;;;21.40;59.50;;;;;;5068250;27;82364;-44
2022/08/01 03:01:53;;;;;;;;;;;21.30;59.50;;;;;;5067614;27;82992;-43
2022/08/01 03:04:19;;;;;;;;;;;21.30;59.60;;;;;;5067966;27;82121;-44
2022/08/01 03:06:45;;;;;;;;;;;21.30;59.60;;;;;;5067840;27;83823;-44
2022/08/01 03:09:11;;;;;;;;;;;21.30;60.20;;;;;;5068315;27;82073;-44
2022/08/01 03:11:39;;;;;;;;;;;21.30;59.60;;;;;;5067615;27;81972;-43
2022/08/01 03:14:07;;;;;;;;;;;21.30;59.60;;;;;;5067894;27;82298;-44
2022/08/01 03:16:34;;;;;;;;;;;21.20;59.60;;;;;;5069587;27;84017;-43
2022/08/01 03:19:01;;;;;;;;;;;21.20;59.60;;;;;;5067850;27;83676;-44
2022/08/01 03:21:27;;;;;;;;;;;21.20;60.20;;;;;;5067321;27;84618;-44
2022/08/01 03:23:56;;;;;;;;;;;21.20;59.60;;;;;;5067718;27;82029;-44
2022/08/01 03:26:29;;;;;;;;;;;21.20;59.60;;;;;;5067480;27;82439;-45
2022/08/01 03:28:56;;;;;;;;;;;21.20;59.60;;;;;;5067392;27;84145;-44
2022/08/01 03:31:22;;;;;;;;;;;21.10;59.60;;;;;;5067536;27;81982;-44
2022/08/01 03:33:47;;;;;;;;;;;21.10;59.60;;;;;;5068030;27;82564;-44
2022/08/01 03:36:15;;;;;;;;;;;21.10;59.70;;;;;;5067363;27;82941;-44
2022/08/01 03:38:42;;;;;;;;;;;21.10;59.70;;;;;;5070130;27;82152;-43
2022/08/01 03:41:10;;;;;;;;;;;21.10;59.80;;;;;;5066301;27;83709;-45
2022/08/01 03:43:38;;;;;;;;;;;21.10;59.80;;;;;;5067311;27;82057;-44
2022/08/01 03:46:08;;;;;;;;;;;21.00;59.70;;;;;;5066888;27;83970;-44
2022/08/01 03:48:36;;;;;;;;;;;21.00;59.50;;;;;;5067019;27;84582;-44
2022/08/01 03:51:02;;;;;;;;;;;21.10;59.50;;;;;;5066759;27;82096;-43
2022/08/01 03:53:29;;;;;;;;;;;21.00;59.50;;;;;;5067132;27;81943;-45
2022/08/01 03:55:55;;;;;;;;;;;21.00;59.50;;;;;;5067000;27;81762;-44
2022/08/01 03:58:21;;;;;;;;;;;21.00;59.50;;;;;;5067811;27;81290;-46
2022/08/01 04:00:47;;;;;;;;;;;21.00;59.50;;;;;;5069434;27;81971;-43
2022/08/01 04:03:13;;;;;;;;;;;20.90;59.60;;;;;;5066590;27;81953;-44
2022/08/01 04:05:42;;;;;;;;;;;20.90;59.60;;;;;;5066391;27;82804;-44
2022/08/01 04:08:08;;;;;;;;;;;20.90;59.60;;;;;;5066774;27;82868;-44
2022/08/01 04:10:33;;;;;;;;;;;20.90;59.60;;;;;;5066983;27;82116;-44
2022/08/01 04:12:59;;;;;;;;;;;20.90;59.50;;;;;;5067142;27;82555;-44
2022/08/01 04:15:24;;;;;;;;;;;20.90;59.60;;;;;;5065368;27;85130;-45
2022/08/01 04:17:50;;;;;;;;;;;20.90;59.50;;;;;;5067027;27;82068;-44
2022/08/01 04:20:15;;;;;;;;;;;20.90;59.60;;;;;;5066892;27;82751;-44
2022/08/01 04:22:41;;;;;;;;;;;20.90;59.60;;;;;;5069873;27;82151;-44
2022/08/01 04:25:27;;;;;;;;;;;20.80;59.60;;;;;;5066727;27;82029;-45
2022/08/01 04:27:54;;;;;;;;;;;20.80;59.70;;;;;;5066618;27;83095;-44
2022/08/01 04:30:24;;;;;;;;;;;20.80;59.60;;;;;;5066233;27;83027;-44
2022/08/01 04:32:50;;;;;;;;;;;20.80;59.60;;;;;;5066802;27;83356;-44
2022/08/01 04:35:18;;;;;;;;;;;20.80;59.60;;;;;;5066180;27;82976;-45
2022/08/01 04:37:45;;;;;;;;;;;20.80;59.50;;;;;;5066668;27;82605;-44
2022/08/01 04:40:11;;;;;;;;;;;20.80;59.50;;;;;;5066489;27;82462;-44
2022/08/01 04:42:37;;;;;;;;;;;20.80;59.60;;;;;;5068908;27;83011;-43
2022/08/01 04:45:03;;;;;;;;;;;20.70;59.60;;;;;;5066324;27;82270;-45
2022/08/01 04:47:30;;;;;;;;;;;20.80;59.60;;;;;;5066698;27;82644;-44
2022/08/01 04:49:56;;;;;;;;;;;20.70;59.60;;;;;;5065788;27;82688;-45
2022/08/01 04:52:22;;;;;;;;;;;20.70;59.60;;;;;;5066287;27;83871;-43
2022/08/01 04:54:47;;;;;;;;;;;20.80;59.50;;;;;;5065648;27;84072;-43
2022/08/01 04:57:13;;;;;;;;;;;20.80;59.50;;;;;;5066299;27;82025;-44
2022/08/01 04:59:41;;;;;;;;;;;20.70;59.40;;;;;;5065995;27;83791;-43
2022/08/01 05:02:09;;;;;;;;;;;20.70;59.50;;;;;;5065967;27;83021;-43
2022/08/01 05:04:35;;;;;;;;;;;20.70;60.10;;;;;;5068926;27;82484;-43
2022/08/01 05:07:01;;;;;;;;;;;20.70;59.70;;;;;;5065854;27;82952;-43
2022/08/01 05:09:27;;;;;;;;;;;20.70;59.60;;;;;;5066130;27;81944;-43
2022/08/01 05:11:52;;;;;;;;;;;20.70;59.70;;;;;;5066839;27;82751;-44
2022/08/01 05:14:18;;;;;;;;;;;20.70;59.70;;;;;;5069240;27;83187;-43
2022/08/01 05:16:44;;;;;;;;;;;20.70;59.50;;;;;;5069762;27;82115;-43
2022/08/01 05:19:09;;;;;;;;;;;20.80;59.50;;;;;;5068999;27;82935;-43
2022/08/01 05:21:35;;;;;;;;;;;20.70;59.50;;;;;;5069266;27;83960;-44
2022/08/01 05:24:00;;;;;;;;;;;20.70;59.40;;;;;;5069594;27;83052;-45
2022/08/01 05:26:26;;;;;;;;;;;20.80;59.30;;;;;;5072097;27;82979;-43
2022/08/01 05:28:51;;;;;;;;;;;20.80;59.40;;;;;;5069535;27;82024;-43
2022/08/01 05:31:17;;;;;;;;;;;20.80;59.30;;;;;;5069573;27;82488;-44
2022/08/01 05:33:43;;;;;;;;;;;20.70;59.40;;;;;;5065263;27;89043;-44
2022/08/01 05:36:08;;;;;;;;;;;20.70;59.50;;;;;;5066623;27;86758;-44
2022/08/01 05:38:34;;;;;;;;;;;20.70;59.50;;;;;;5065845;27;88500;-43
2022/08/01 05:40:59;;;;;;;;;;;20.70;59.50;;;;;;5065800;27;88066;-43
2022/08/01 05:43:25;;;;;;;;;;;20.70;59.60;;;;;;5065454;27;87871;-46
2022/08/01 05:45:50;;;;;;;;;;;20.70;59.70;;;;;;5065717;27;88333;-45
2022/08/01 05:48:16;;;;;;;;;;;20.70;59.80;;;;;;5068285;27;89622;-44
2022/08/01 05:50:41;;;;;;;;;;;20.70;59.80;;;;;;5065491;27;87572;-44
2022/08/01 05:53:07;;;;;;;;;;;20.70;59.80;;;;;;5065157;27;89136;-45
2022/08/01 05:55:32;;;;;;;;;;;20.70;59.90;;;;;;5065776;27;87109;-45
2022/08/01 05:57:58;;;;;;;;;;;20.70;59.90;;;;;;5065772;27;87560;-43
2022/08/01 06:00:23;;;;;;;;;;;20.70;59.90;;;;;;5065881;27;87410;-44
2022/08/01 06:02:49;;;;;;;;;;;20.70;60.00;;;;;;5065663;27;87087;-44
2022/08/01 06:05:15;;;;;;;;;;;20.70;60.10;;;;;;5065060;27;88759;-43
2022/08/01 06:07:40;;;;;;;;;;;20.70;60.00;;;;;;5064283;27;90149;-44
2022/08/01 06:10:07;;;;;;;;;;;20.70;60.10;;;;;;5068438;27;86978;-43
2022/08/01 06:12:33;;;;;;;;;;;20.70;60.10;;;;;;5065266;27;88136;-44
2022/08/01 06:14:58;;;;;;;;;;;20.70;60.20;;;;;;5065437;27;87181;-43
2022/08/01 06:17:24;;;;;;;;;;;20.60;60.10;;;;;;5063934;27;90490;-44
2022/08/01 06:19:49;;;;;;;;;;;20.70;60.10;;;;;;5065102;27;88012;-44
2022/08/01 06:22:15;;;;;;;;;;;20.70;60.20;;;;;;5065222;27;86848;-46
2022/08/01 06:24:40;;;;;;;;;;;20.60;60.20;;;;;;5064708;27;87945;-46
2022/08/01 06:27:06;;;;;;;;;;;20.70;60.20;;;;;;5064937;27;88062;-44
2022/08/01 06:29:32;;;;;;;;;;;20.70;60.10;;;;;;5065226;27;87057;-44
2022/08/01 06:31:58;;;;;;;;;;;20.70;60.20;;;;;;5067220;27;87971;-43
2022/08/01 06:34:23;;;;;;;;;;;20.70;60.40;;;;;;5064704;27;86988;-44
2022/08/01 06:36:49;;;;;;;;;;;20.70;60.10;;;;;;5065022;27;88426;-44
2022/08/01 06:39:14;;;;;;;;;;;20.70;60.10;;;;;;5064671;27;87615;-44
2022/08/01 06:41:41;;;;;;;;;;;20.70;60.10;;;;;;5065044;27;87208;-44
2022/08/01 06:44:07;;;;;;;;;;;20.70;60.20;;;;;;5065075;27;87377;-44
2022/08/01 06:46:32;;;;;;;;;;;20.70;60.20;;;;;;5064149;27;89200;-43
2022/08/01 06:48:58;;;;;;;;;;;20.70;60.40;;;;;;5064703;27;86359;-44
2022/08/01 06:51:23;;;;;;;;;;;20.70;60.30;;;;;;5067508;27;87033;-43
2022/08/01 06:53:49;;;;;;;;;;;20.70;60.30;;;;;;5064793;27;87543;-46
2022/08/01 06:56:14;;;;;;;;;;;20.70;60.30;;;;;;5064292;27;87977;-45
2022/08/01 06:58:40;;;;;;;;;;;20.70;60.20;;;;;;5064440;27;88119;-44
2022/08/01 07:01:06;;;;;;;;;;;20.70;60.30;;;;;;5065001;27;87213;-44
2022/08/01 07:03:32;;;;;;;;;;;20.70;60.10;;;;;;5064223;27;88795;-44
2022/08/01 07:05:57;;;;;;;;;;;20.70;60.10;;;;;;5064072;27;89299;-43
2022/08/01 07:08:23;;;;;;;;;;;20.70;60.10;;;;;;5064647;27;87118;-43
2022/08/01 07:10:49;;;;;;;;;;;20.70;60.00;;;;;;5064709;27;87571;-44
2022/08/01 07:13:20;;;;;;;;;;;20.70;60.10;;;;;;5067592;27;86742;-44
2022/08/01 07:15:46;;;;;;;;;;;20.70;60.40;;;;;;5064656;27;86843;-43
2022/08/01 07:18:11;;;;;;;;;;;20.70;60.30;;;;;;5064164;27;87931;-43
2022/08/01 07:20:37;;;;;;;;;;;20.70;60.30;;;;;;5063586;27;88074;-44
2022/08/01 07:23:03;;;;;;;;;;;20.70;60.10;;;;;;5064499;27;88412;-43
2022/08/01 07:25:28;;;;;;;;;;;20.70;60.20;;;;;;5063912;27;88006;-44
2022/08/01 07:27:54;;;;;;;;;;;20.70;60.10;;;;;;5064282;27;87046;-45
2022/08/01 07:30:19;;;;;;;;;;;20.70;60.20;;;;;;5064292;27;87570;-45
2022/08/01 07:32:45;;;;;;;;;;;20.70;60.30;;;;;;5063605;27;88662;-45
2022/08/01 07:35:10;;;;;;;;;;;20.70;60.40;;;;;;5066872;27;87306;-43
2022/08/01 07:37:36;;;;;;;;;;;20.70;60.30;;;;;;5064084;27;88718;-44
2022/08/01 07:40:03;;;;;;;;;;;20.70;60.10;;;;;;5064290;27;86719;-44
2022/08/01 07:42:29;;;;;;;;;;;20.70;60.10;;;;;;5063702;27;89156;-44
2022/08/01 07:44:54;;;;;;;;;;;20.70;60.00;;;;;;5062596;27;89015;-43
2022/08/01 07:47:24;;;;;;;;;;;20.70;60.10;;;;;;5064228;27;87344;-44
2022/08/01 07:49:49;;;;;;;;;;;20.70;60.20;;;;;;5063258;27;87472;-43
2022/08/01 07:52:15;;;;;;;;;;;20.70;60.10;;;;;;5063482;27;88118;-45
2022/08/01 07:54:40;;;;;;;;;;;20.70;60.10;;;;;;5063773;27;87133;-44
2022/08/01 07:57:06;;;;;;;;;;;20.70;60.00;;;;;;5066786;27;87458;-43
2022/08/01 07:59:32;;;;;;;;;;;20.70;60.00;;;;;;5063703;27;87026;-44
2022/08/01 08:01:58;;;;;;;;;;;20.70;60.00;;;;;;5063711;27;88779;-43
2022/08/01 08:04:23;;;;;;;;;;;20.70;59.80;;;;;;5063147;27;88484;-44
2022/08/01 08:06:49;;;;;;;;;;;20.80;59.80;;;;;;5063735;27;87459;-44
2022/08/01 08:09:15;;;;;;;;;;;20.70;59.80;;;;;;5062831;27;88466;-44
2022/08/01 08:11:44;;;;;;;;;;;20.70;59.80;;;;;;5063018;27;89818;-44
2022/08/01 08:14:10;;;;;;;;;;;20.80;59.80;;;;;;5063407;27;87362;-45
2022/08/01 08:16:35;;;;;;;;;;;20.80;59.80;;;;;;5063785;27;87286;-44
2022/08/01 08:19:01;;;;;;;;;;;20.80;59.90;;;;;;5065972;27;88042;-43
2022/08/01 08:21:27;;;;;;;;;;;20.80;59.80;;;;;;5063419;27;87537;-44
2022/08/01 08:26:37;;;;;;;;;;;20.80;60.00;;;;;;5064301;27;86615;-44
2022/08/01 08:29:03;;;;;;;;;;;20.70;60.00;;;;;;5063473;27;86952;-44
2022/08/01 08:31:28;;;;;;;;;;;20.80;60.00;;;;;;5062704;27;88234;-43
2022/08/01 08:33:54;;;;;;;;;;;20.80;59.80;;;;;;5062656;27;87889;-44
2022/08/01 08:36:19;;;;;;;;;;;20.80;60.10;;;;;;5061726;27;91603;-43
2022/08/01 08:38:45;;;;;;;;;;;20.80;59.90;;;;;;5062752;27;88051;-44
2022/08/01 08:41:10;;;;;;;;;;;20.80;59.90;;;;;;5066003;27;87010;-46
2022/08/01 08:43:36;;;;;;;;;;;20.70;59.70;;;;;;5062789;27;88024;-43
2022/08/01 08:46:02;;;;;;;;;;;20.80;59.90;;;;;;5062755;27;87427;-44
2022/08/01 08:48:28;;;;;;;;;;;20.80;59.90;;;;;;5062214;27;88736;-43
2022/08/01 08:50:55;;;;;;;;;;;20.80;60.00;;;;;;5062740;27;87381;-44
2022/08/01 08:53:20;;;;;;;;;;;20.70;59.90;;;;;;5063065;27;87145;-44
2022/08/01 08:55:46;;;;;;;;;;;20.80;59.80;;;;;;5063082;27;87288;-45
2022/08/01 08:58:12;;;;;;;;;;;20.80;60.10;;;;;;5062063;27;88961;-44
2022/08/01 09:00:41;;;;;;;;;;;20.80;60.00;;;;;;5065869;27;87045;-44
2022/08/01 09:03:06;;;;;;;;;;;20.80;59.80;;;;;;5062451;27;87239;-45
2022/08/01 09:05:32;;;;;;;;;;;20.80;59.70;;;;;;5062773;27;86927;-42
2022/08/01 09:07:57;;;;;;;;;;;20.90;59.70;;;;;;5062966;27;86944;-44
2022/08/01 09:10:23;;;;;;;;;;;20.80;59.60;;;;;;5062168;27;89422;-44
2022/08/01 09:13:05;;;;;;;;;;;20.90;59.80;;;;;;5062840;27;87057;-45
2022/08/01 09:15:44;;;;;;;;;;;20.90;59.60;;;;;;5062852;27;88524;-43
2022/08/01 09:18:26;;;;;;;;;;;20.90;59.60;;;;;;5062058;27;87940;-43
2022/08/01 09:21:06;;;;;;;;;;;20.90;59.40;;;;;;5062453;27;87081;-43
2022/08/01 09:23:32;;;;;;;;;;;21.00;59.40;;;;;;5064364;27;88840;-43
2022/08/01 09:25:58;;;;;;;;;;;21.00;59.40;;;;;;5062408;27;87296;-44
2022/08/01 09:28:28;;;;;;;;;;;21.00;59.30;;;;;;5062672;27;87287;-44
2022/08/01 09:30:55;;;;;;;;;;;21.00;59.30;;;;;;5061929;27;87286;-44
2022/08/01 09:33:20;;;;;;;;;;;21.00;59.30;;;;;;5062422;27;87108;-45
2022/08/01 09:35:53;;;;;;;;;;;21.10;59.30;;;;;;5062452;27;87361;-46
2022/08/01 09:38:23;;;;;;;;;;;21.00;59.20;;;;;;5062202;27;88046;-44
2022/08/01 09:40:51;;;;;;;;;;;21.00;59.20;;;;;;5062724;27;86293;-45
2022/08/01 09:43:18;;;;;;;;;;;21.10;59.30;;;;;;5062253;27;88035;-44
2022/08/01 09:45:43;;;;;;;;;;;21.00;59.20;;;;;;5064615;27;88408;-44
2022/08/01 09:48:09;;;;;;;;;;;21.10;59.20;;;;;;5061752;27;89030;-44
2022/08/01 09:50:41;;;;;;;;;;;21.10;59.10;;;;;;5061161;27;89197;-45
2022/08/01 09:53:08;;;;;;;;;;;21.10;59.00;;;;;;5061849;27;87016;-43
2022/08/01 09:55:33;;;;;;;;;;;21.10;59.10;;;;;;5062368;27;87251;-44
2022/08/01 09:58:00;;;;;;;;;;;21.20;59.70;;;;;;5061984;27;87224;-44
2022/08/01 10:00:26;;;;;;;;;;;21.10;59.10;;;;;;5063692;27;87098;-44
2022/08/01 10:02:51;;;;;;;;;;;21.20;59.10;;;;;;5065541;27;87902;-44
2022/08/01 10:05:17;;;;;;;;;;;21.20;59.20;;;;;;5065668;27;87197;-44
2022/08/01 10:08:15;;;;;;;;;;;21.20;59.00;;;;;;5068383;27;87153;-44
2022/08/01 10:10:40;;;;;;;;;;;21.20;59.00;;;;;;5052619;27;87498;-43
2022/08/01 10:13:07;;;;;;;;;;;21.20;59.00;;;;;;5064481;27;87906;-45
2022/08/01 10:15:33;;;;;;;;;;;21.20;59.00;;;;;;5065479;27;88944;-45
2022/08/01 10:18:00;;;;;;;;;;;21.20;58.90;;;;;;5064931;27;88034;-45
2022/08/01 10:20:34;;;;;;;;;;;21.30;59.00;;;;;;5065321;27;87343;-47
2022/08/01 10:23:01;;;;;;;;;;;21.30;58.90;;;;;;5065431;27;87477;-44
2022/08/01 10:25:28;;;;;;;;;;;21.30;58.90;;;;;;5064919;27;87785;-45
2022/08/01 10:27:56;;;;;;;;;;;21.30;58.80;;;;;;5065447;27;87229;-44
2022/08/01 10:30:22;;;;;;;;;;;21.30;58.80;;;;;;5068034;27;87351;-43
2022/08/01 10:32:49;;;;;;;;;;;21.30;58.80;;;;;;5064767;27;87036;-46
2022/08/01 10:35:17;;;;;;;;;;;21.40;58.80;;;;;;5065048;27;88885;-44
2022/08/01 10:37:45;;;;;;;;;;;21.40;58.70;;;;;;5064090;27;89137;-45
2022/08/01 10:40:14;;;;;;;;;;;21.40;58.70;;;;;;5064825;27;87116;-45
2022/08/01 10:42:41;;;;;;;;;;;21.40;58.70;;;;;;5064733;27;88924;-46
2022/08/01 10:45:07;;;;;;;;;;;21.40;58.60;;;;;;5064516;27;88009;-45
2022/08/01 10:47:46;;;;;;;;;;;21.40;58.70;;;;;;5064805;27;87091;-43
2022/08/01 10:50:11;;;;;;;;;;;21.50;58.70;;;;;;5067439;27;88353;-44
2022/08/01 10:52:37;;;;;;;;;;;21.50;58.70;;;;;;5064982;27;87513;-44
2022/08/01 10:55:03;;;;;;;;;;;21.50;58.60;;;;;;5065077;27;88520;-45
2022/08/01 10:57:45;;;;;;;;;;;21.50;58.60;;;;;;5064412;27;87960;-44
2022/08/01 11:00:18;;;;;;;;;;;21.60;58.60;;;;;;5064442;27;86992;-46
2022/08/01 11:02:56;;;;;;;;;;;21.60;58.60;;;;;;5063766;27;88586;-45
2022/08/01 11:05:22;;;;;;;;;;;21.60;58.60;;;;;;5064465;27;88168;-45
2022/08/01 11:07:51;;;;;;;;;;;21.60;58.60;;;;;;5064815;27;86949;-45
2022/08/01 11:10:33;;;;;;;;;;;21.60;58.60;;;;;;5064030;27;87421;-46
2022/08/01 11:13:00;;;;;;;;;;;21.60;58.60;;;;;;5067040;27;89229;-43
2022/08/01 11:15:27;;;;;;;;;;;21.60;58.60;;;;;;5064272;27;89088;-44
2022/08/01 11:17:53;;;;;;;;;;;21.70;58.60;;;;;;5064128;27;89401;-45
2022/08/01 11:20:45;;;;;;;;;;;21.70;58.70;;;;;;5065076;27;86422;-44
2022/08/01 11:23:12;;;;;;;;;;;21.70;58.60;;;;;;5062646;27;88380;-43
2022/08/01 11:25:38;;;;;;;;;;;21.70;58.60;;;;;;5063644;27;89551;-45
2022/08/01 11:28:16;;;;;;;;;;;21.70;58.60;;;;;;5063587;27;88032;-43
2022/08/01 11:30:42;;;;;;;;;;;21.70;58.60;;;;;;5063830;27;89879;-46
2022/08/01 11:33:08;;;;;;;;;;;21.80;59.20;;;;;;5063846;27;87604;-44
2022/08/01 11:35:34;;;;;;;;;;;21.80;58.60;;;;;;5067090;27;87092;-44
2022/08/01 11:38:19;;;;;;;;;;;21.80;58.70;;;;;;5063770;27;88170;-46
2022/08/01 11:40:45;;;;;;;;;;;21.80;58.70;;;;;;5064187;27;87146;-44
2022/08/01 11:43:13;;;;;;;;;;;21.80;58.60;;;;;;5063851;27;88839;-45
2022/08/01 11:45:57;;;;;;;;;;;21.80;58.70;;;;;;5064214;27;87125;-44
2022/08/01 11:48:24;;;;;;;;;;;21.80;58.70;;;;;;5063827;27;86940;-44
2022/08/01 11:50:50;;;;;;;;;;;21.80;58.60;;;;;;5063606;27;87213;-44
2022/08/01 11:53:18;;;;;;;;;;;21.80;58.60;;;;;;5063217;27;89019;-44
2022/08/01 11:55:50;;;;;;;;;;;21.80;58.50;;;;;;5063785;27;87068;-44
2022/08/01 11:58:20;;;;;;;;;;;21.90;58.50;;;;;;5064831;27;90508;-44
2022/08/01 12:00:52;;;;;;;;;;;21.90;58.60;;;;;;5063457;27;87067;-46
2022/08/01 12:03:23;;;;;;;;;;;21.90;58.50;;;;;;5063698;27;86969;-44
2022/08/01 12:05:48;;;;;;;;;;;21.90;58.50;;;;;;5063443;27;88072;-43
2022/08/01 12:08:23;;;;;;;;;;;22.00;58.40;;;;;;5063534;27;87094;-46
2022/08/01 12:10:49;;;;;;;;;;;22.00;58.40;;;;;;5064171;27;87461;-43
2022/08/01 12:13:15;;;;;;;;;;;22.00;58.40;;;;;;5062751;27;88310;-44
2022/08/01 12:15:40;;;;;;;;;;;22.10;58.40;;;;;;5063254;27;87095;-45
2022/08/01 12:18:07;;;;;;;;;;;22.10;58.40;;;;;;5062896;27;88613;-44
2022/08/01 12:20:36;;;;;;;;;;;22.10;58.30;;;;;;5065850;27;87899;-43
2022/08/01 12:23:15;;;;;;;;;;;22.10;58.30;;;;;;5062072;27;87217;-44
2022/08/01 12:25:40;;;;;;;;;;;22.10;58.30;;;;;;5062496;27;89355;-43
2022/08/01 12:28:07;;;;;;;;;;;22.10;58.30;;;;;;5063399;27;87198;-44
2022/08/01 12:30:36;;;;;;;;;;;22.20;58.30;;;;;;5063215;27;87004;-45
2022/08/01 12:33:06;;;;;;;;;;;22.20;58.30;;;;;;5062771;27;88016;-44
2022/08/01 12:35:31;;;;;;;;;;;22.20;58.30;;;;;;5063502;27;86682;-43
2022/08/01 12:37:58;;;;;;;;;;;22.20;58.20;;;;;;5062861;27;87147;-44
2022/08/01 12:40:27;;;;;;;;;;;22.20;58.10;;;;;;5062456;27;87160;-46
2022/08/01 12:42:53;;;;;;;;;;;22.30;58.20;;;;;;5065239;27;87993;-44
2022/08/01 12:45:21;;;;;;;;;;;22.30;58.20;;;;;;5062550;27;88083;-44
2022/08/01 12:47:47;;;;;;;;;;;22.30;58.30;;;;;;5062634;27;86957;-44
2022/08/01 12:50:14;;;;;;;;;;;22.30;58.30;;;;;;5062422;27;87645;-43
2022/08/01 12:52:41;;;;;;;;;;;22.30;58.20;;;;;;5062306;27;89134;-44
2022/08/01 12:55:08;;;;;;;;;;;22.30;58.20;;;;;;5062441;27;87679;-43
2022/08/01 12:57:35;;;;;;;;;;;22.40;58.20;;;;;;5062726;27;87477;-49
2022/08/01 13:00:04;;;;;;;;;;;22.40;58.20;;;;;;5081240;27;88869;-44
2022/08/01 13:02:34;;;;;;;;;;;22.40;58.50;;;;;;5086178;27;87006;-43
2022/08/01 13:04:59;;;;;;;;;;;22.50;59.20;;;;;;5082831;27;88134;-43
2022/08/01 13:07:38;;;;;;;;;;;22.60;57.70;;;;;;5082459;27;88436;-45
2022/08/01 13:10:04;;;;;;;;;;;22.70;57.80;;;;;;5083024;27;88450;-44
2022/08/01 13:12:30;;;;;;;;;;;22.90;56.30;;;;;;5082685;27;88956;-44
2022/08/01 13:14:55;;;;;;;;;;;22.90;57.30;;;;;;5083321;27;87096;-44
2022/08/01 13:17:31;;;;;;;;;;;22.90;56.90;;;;;;5083222;27;88680;-43
2022/08/01 13:19:56;;;;;;;;;;;22.90;57.60;;;;;;5082573;27;87938;-48
2022/08/01 13:22:31;;;;;;;;;;;23.00;56.10;;;;;;5083156;27;87108;-44
2022/08/01 13:25:09;;;;;;;;;;;23.00;55.70;;;;;;5086637;27;87454;-44
2022/08/01 13:27:34;;;;;;;;;;;23.00;55.00;;;;;;5082994;27;87599;-46
2022/08/01 13:30:10;;;;;;;;;;;23.10;56.70;;;;;;5083032;27;87086;-44
2022/08/01 13:32:35;;;;;;;;;;;23.10;53.90;;;;;;5081466;27;89332;-44
2022/08/01 13:35:02;;;;;;;;;;;23.10;54.60;;;;;;5085684;27;87132;-45
2022/08/01 13:37:28;;;;;;;;;;;23.20;54.10;;;;;;5086457;27;87477;-45
2022/08/01 13:39:53;;;;;;;;;;;23.20;54.50;;;;;;5086288;27;88089;-43
2022/08/01 13:42:19;;;;;;;;;;;23.20;53.30;;;;;;5086543;27;87064;-46
2022/08/01 13:44:45;;;;;;;;;;;23.20;53.70;;;;;;5086221;27;87915;-46
2022/08/01 13:47:10;;;;;;;;;;;23.40;52.80;;;;;;5088623;27;87200;-45
2022/08/01 13:49:36;;;;;;;;;;;23.40;53.00;;;;;;5086422;27;87371;-48
2022/08/01 13:52:02;;;;;;;;;;;23.40;51.90;;;;;;5085655;27;87961;-57
2022/08/01 13:54:27;;;;;;;;;;;23.40;53.20;;;;;;5085593;27;87222;-44
2022/08/01 13:56:53;;;;;;;;;;;23.40;52.80;;;;;;5085464;27;87994;-44
2022/08/01 13:59:19;;;;;;;;;;;23.40;52.20;;;;;;5085672;27;88338;-49
2022/08/01 14:01:45;;;;;;;;;;;23.40;52.50;;;;;;5085618;27;87118;-42
2022/08/01 14:04:10;;;;;;;;;;;23.40;51.70;;;;;;5085730;27;88921;-44
2022/08/01 14:06:36;;;;;;;;;;;23.40;52.10;;;;;;5085566;27;87669;-48
2022/08/01 14:09:02;;;;;;;;;;;23.40;53.00;;;;;;5088894;27;87139;-46
2022/08/01 14:11:28;;;;;;;;;;;23.40;53.30;;;;;;5085446;27;87791;-51
2022/08/01 14:13:53;;;;;;;;;;;23.50;54.20;;;;;;5086297;27;86289;-45
2022/08/01 14:16:19;;;;;;;;;;;23.50;54.10;;;;;;5085587;27;86977;-46
2022/08/01 14:18:45;;;;;;;;;;;23.60;54.10;;;;;;5085428;27;87704;-46
2022/08/01 14:21:10;;;;;;;;;;;23.70;54.30;;;;;;5085065;27;88061;-44